Time;durP1;ratioP1;P1;durP2;ratioP2;P2;SDS_P1;SDS_P2;PMS_P1;PMS_P2;Temp;Humidity;BMP_temperature;BMP_pressure;BME280_temperature;BME280_humidity;BME280_pressure;Samples;Min_cycle;Max_cycle;Signal;HPM_P1;HPM_P2
2021/07/20 00:00:38;;;;;;;14.98;4.10;;;14.10;85.10;;;;;;5010706;28;20025;-68
2021/07/20 00:03:07;;;;;;;11.35;3.67;;;14.10;85.30;;;;;;5012906;28;20492;-70
2021/07/20 00:05:34;;;;;;;12.13;4.85;;;14.10;85.40;;;;;;5012811;28;20493;-72
2021/07/20 00:08:02;;;;;;;11.35;4.78;;;14.10;85.30;;;;;;5014001;28;20034;-69
2021/07/20 00:10:39;;;;;;;16.80;4.70;;;14.00;85.00;;;;;;5012406;28;20026;-70
2021/07/20 00:13:06;;;;;;;16.08;4.50;;;14.10;85.20;;;;;;5011665;28;20384;-72
2021/07/20 00:15:34;;;;;;;14.85;4.28;;;14.00;85.10;;;;;;5010456;28;20088;-68
2021/07/20 00:18:12;;;;;;;11.32;4.13;;;14.00;85.20;;;;;;5015917;28;20125;-70
2021/07/20 00:20:40;;;;;;;9.93;3.80;;;14.00;85.00;;;;;;5023022;28;20068;-68
2021/07/20 00:23:07;;;;;;;14.70;4.38;;;14.00;85.10;;;;;;5016294;28;20459;-68
2021/07/20 00:25:34;;;;;;;13.95;4.75;;;14.00;84.80;;;;;;5013732;28;20010;-67
2021/07/20 00:28:00;;;;;;;8.40;3.30;;;14.00;84.40;;;;;;5014239;28;20107;-68
2021/07/20 00:30:28;;;;;;;11.13;3.63;;;14.00;84.20;;;;;;5012696;28;20041;-69
2021/07/20 00:32:55;;;;;;;13.07;4.25;;;14.00;83.90;;;;;;5012031;28;20034;-68
2021/07/20 00:35:21;;;;;;;11.55;3.92;;;14.00;83.60;;;;;;5013024;28;20116;-70
2021/07/20 00:37:48;;;;;;;8.90;4.10;;;14.00;83.50;;;;;;5013753;28;20702;-70
2021/07/20 00:40:18;;;;;;;7.05;2.63;;;14.00;83.70;;;;;;5011932;28;20037;-70
2021/07/20 00:42:46;;;;;;;7.50;3.38;;;14.00;83.60;;;;;;5015311;28;20025;-69
2021/07/20 00:45:14;;;;;;;8.60;3.38;;;14.00;83.50;;;;;;5012607;28;20026;-68
2021/07/20 00:47:41;;;;;;;7.13;3.30;;;14.00;83.60;;;;;;5013728;28;20430;-70
2021/07/20 00:50:10;;;;;;;5.18;2.75;;;14.00;83.40;;;;;;5011416;28;20036;-68
2021/07/20 00:52:38;;;;;;;7.95;2.97;;;14.00;83.30;;;;;;5011312;28;20515;-68
2021/07/20 00:55:06;;;;;;;10.43;2.85;;;13.90;83.00;;;;;;5013885;28;20033;-67
2021/07/20 00:57:33;;;;;;;8.52;2.20;;;14.00;83.10;;;;;;5011289;28;20021;-68
2021/07/20 01:00:00;;;;;;;7.78;2.70;;;14.00;82.90;;;;;;5011785;28;20022;-68
2021/07/20 01:02:27;;;;;;;10.50;2.60;;;14.00;82.80;;;;;;5009758;28;20033;-68
2021/07/20 01:04:54;;;;;;;11.82;3.00;;;14.00;82.70;;;;;;5015059;28;20018;-69
2021/07/20 01:07:21;;;;;;;7.18;2.20;;;14.00;82.30;;;;;;5012803;28;20018;-68
2021/07/20 01:09:48;;;;;;;10.52;3.08;;;14.00;82.30;;;;;;5011543;28;20113;-68
2021/07/20 01:12:15;;;;;;;4.30;2.33;;;13.90;82.30;;;;;;5020200;28;20022;-73
2021/07/20 01:14:43;;;;;;;11.52;3.05;;;14.00;82.30;;;;;;5016785;28;20025;-68
2021/07/20 01:17:12;;;;;;;7.10;2.42;;;14.00;82.20;;;;;;5015328;28;20037;-67
2021/07/20 01:19:47;;;;;;;12.18;3.00;;;14.00;82.30;;;;;;5013129;28;20131;-72
2021/07/20 01:22:17;;;;;;;11.37;2.97;;;14.00;82.30;;;;;;5017381;28;20018;-68
2021/07/20 01:24:44;;;;;;;12.43;3.05;;;13.90;82.30;;;;;;5012573;28;20292;-70
2021/07/20 01:27:11;;;;;;;13.30;2.83;;;13.90;82.30;;;;;;5017659;28;20021;-74
2021/07/20 01:29:39;;;;;;;7.47;2.88;;;13.90;82.50;;;;;;5013727;28;20026;-69
2021/07/20 01:32:07;;;;;;;8.80;2.63;;;13.90;82.70;;;;;;5014234;28;20010;-69
2021/07/20 01:34:34;;;;;;;9.32;2.10;;;13.90;83.00;;;;;;5014754;28;20014;-69
2021/07/20 01:37:02;;;;;;;8.98;2.47;;;13.90;82.90;;;;;;5013658;28;20028;-71
2021/07/20 01:39:29;;;;;;;7.70;2.03;;;13.90;83.00;;;;;;5014776;28;20129;-67
2021/07/20 01:41:57;;;;;;;7.03;3.00;;;13.90;83.10;;;;;;5010082;28;20528;-68
2021/07/20 01:44:24;;;;;;;8.32;2.28;;;13.90;83.10;;;;;;5018114;28;20028;-68
2021/07/20 01:46:52;;;;;;;8.80;3.03;;;13.90;83.40;;;;;;5014939;28;20091;-68
2021/07/20 01:49:19;;;;;;;14.15;2.60;;;13.90;83.50;;;;;;5013541;28;20026;-68
2021/07/20 01:51:46;;;;;;;7.63;2.05;;;13.90;83.50;;;;;;5016248;28;20030;-72
2021/07/20 01:54:13;;;;;;;9.68;2.10;;;13.80;83.20;;;;;;5014997;28;20511;-67
2021/07/20 01:56:39;;;;;;;6.82;1.60;;;13.90;83.20;;;;;;5014763;28;20524;-68
2021/07/20 01:59:10;;;;;;;6.85;2.08;;;13.80;83.10;;;;;;5015319;28;20041;-69
2021/07/20 02:02:09;;;;;;;5.65;1.85;;;13.80;83.10;;;;;;5013743;28;20018;-67
2021/07/20 02:09:57;;;;;;;6.20;2.40;;;13.80;82.10;;;;;;5015248;28;20044;-68
2021/07/20 02:12:33;;;;;;;4.85;1.30;;;13.80;82.10;;;;;;5017085;28;20547;-69
2021/07/20 02:15:03;;;;;;;4.18;1.55;;;13.80;81.90;;;;;;5014357;28;20109;-68
2021/07/20 02:17:30;;;;;;;2.95;0.98;;;13.80;81.90;;;;;;5013854;28;20476;-70
2021/07/20 02:20:22;;;;;;;4.80;1.30;;;13.70;81.40;;;;;;5013189;28;20061;-69
2021/07/20 02:22:52;;;;;;;6.72;1.73;;;13.70;81.30;;;;;;5013014;28;20038;-67
2021/07/20 02:25:19;;;;;;;10.30;2.00;;;13.70;81.20;;;;;;5012389;28;20018;-68
2021/07/20 02:27:48;;;;;;;4.63;1.58;;;13.70;81.40;;;;;;5013152;28;20511;-67
2021/07/20 02:30:15;;;;;;;4.53;2.13;;;13.70;81.30;;;;;;5013926;28;20056;-68
2021/07/20 02:32:45;;;;;;;4.75;1.60;;;13.70;81.20;;;;;;5013733;28;20109;-67
2021/07/20 02:35:25;;;;;;;3.22;1.17;;;13.70;81.00;;;;;;5016033;28;20473;-68
2021/07/20 02:37:53;;;;;;;7.75;2.55;;;13.70;81.00;;;;;;5011720;28;20022;-67
2021/07/20 02:40:22;;;;;;;7.07;1.42;;;13.70;80.90;;;;;;5014595;28;20562;-68
2021/07/20 02:42:51;;;;;;;4.03;1.50;;;13.70;81.30;;;;;;5014174;28;20072;-68
2021/07/20 02:45:19;;;;;;;5.25;1.77;;;13.70;81.60;;;;;;5016735;28;20548;-70
2021/07/20 02:47:47;;;;;;;6.35;2.40;;;13.70;82.00;;;;;;5013350;28;20512;-67
2021/07/20 02:50:16;;;;;;;4.30;1.38;;;13.70;82.40;;;;;;5012830;28;20029;-69
2021/07/20 02:52:45;;;;;;;10.95;2.08;;;13.70;82.50;;;;;;5014282;28;20370;-67
2021/07/20 02:55:16;;;;;;;11.88;2.67;;;13.70;82.80;;;;;;5015476;28;20029;-68
2021/07/20 02:57:44;;;;;;;11.57;2.92;;;13.70;83.20;;;;;;5010199;28;20022;-68
2021/07/20 03:00:12;;;;;;;10.20;3.92;;;13.80;83.30;;;;;;5014672;28;20277;-68
2021/07/20 03:02:44;;;;;;;7.57;3.55;;;13.70;83.40;;;;;;5010764;28;20603;-68
2021/07/20 03:05:12;;;;;;;6.93;3.50;;;13.70;83.60;;;;;;5012359;28;20029;-73
2021/07/20 03:07:42;;;;;;;8.70;3.40;;;13.70;83.60;;;;;;5011912;28;20029;-71
2021/07/20 03:10:10;;;;;;;4.90;2.03;;;13.70;83.90;;;;;;5014641;28;20030;-68
2021/07/20 03:12:40;;;;;;;5.47;2.55;;;13.80;84.00;;;;;;5012685;28;20104;-72
2021/07/20 03:15:07;;;;;;;5.63;2.35;;;13.70;83.90;;;;;;5013222;28;20614;-73
2021/07/20 03:17:34;;;;;;;4.95;1.40;;;13.70;84.00;;;;;;5013539;28;20041;-67
2021/07/20 03:20:03;;;;;;;6.43;1.13;;;13.70;83.90;;;;;;5014200;28;20068;-68
2021/07/20 03:22:31;;;;;;;4.53;2.20;;;13.70;83.80;;;;;;5014077;28;20116;-67
2021/07/20 03:25:02;;;;;;;5.78;1.65;;;13.70;83.80;;;;;;5013634;28;20017;-68
2021/07/20 03:27:31;;;;;;;7.63;2.10;;;13.70;83.50;;;;;;5013668;28;20538;-67
2021/07/20 03:30:00;;;;;;;5.20;1.30;;;13.70;83.50;;;;;;5012529;28;20418;-67
2021/07/20 03:32:28;;;;;;;3.13;1.08;;;13.70;83.80;;;;;;5011665;28;20112;-68
2021/07/20 03:34:55;;;;;;;3.92;2.00;;;13.70;84.00;;;;;;5013686;28;20022;-69
2021/07/20 03:37:23;;;;;;;5.20;1.42;;;13.70;84.20;;;;;;5012652;28;20044;-70
2021/07/20 03:39:55;;;;;;;7.45;2.35;;;13.70;84.70;;;;;;5013686;28;20022;-70
2021/07/20 03:42:23;;;;;;;5.65;1.33;;;13.70;85.20;;;;;;5013172;28;20022;-71
2021/07/20 03:44:50;;;;;;;3.10;1.27;;;13.70;85.30;;;;;;5013315;28;20022;-71
2021/07/20 03:47:17;;;;;;;3.20;1.20;;;13.70;85.50;;;;;;5014183;28;20033;-71
2021/07/20 03:49:45;;;;;;;7.22;1.30;;;13.70;85.80;;;;;;5013493;28;20014;-70
2021/07/20 03:52:14;;;;;;;5.72;1.20;;;13.70;86.10;;;;;;5011038;28;20020;-70
2021/07/20 03:54:42;;;;;;;8.95;2.60;;;13.70;86.30;;;;;;5014775;28;20010;-71
2021/07/20 03:57:13;;;;;;;6.80;1.63;;;13.70;86.50;;;;;;5017347;28;20052;-69
2021/07/20 03:59:40;;;;;;;29.25;18.05;;;13.70;86.90;;;;;;5011233;28;20044;-69
2021/07/20 04:02:09;;;;;;;18.90;10.43;;;13.70;87.10;;;;;;5012351;28;20037;-73
2021/07/20 04:04:39;;;;;;;6.00;2.33;;;13.70;87.00;;;;;;5010523;28;20010;-70
2021/07/20 04:07:08;;;;;;;5.82;1.88;;;13.70;86.70;;;;;;5003087;28;20120;-67
2021/07/20 04:09:38;;;;;;;9.10;1.38;;;13.70;87.00;;;;;;5009640;28;20128;-68
2021/07/20 04:12:06;;;;;;;8.60;2.55;;;13.70;86.70;;;;;;5011234;28;20026;-68
2021/07/20 04:14:33;;;;;;;14.68;7.57;;;13.70;86.70;;;;;;5010576;28;20014;-66
2021/07/20 04:17:02;;;;;;;37.17;27.45;;;13.70;86.80;;;;;;5012772;28;20080;-67
2021/07/20 04:19:29;;;;;;;20.13;10.55;;;13.70;86.80;;;;;;5010847;28;20038;-66
2021/07/20 04:21:56;;;;;;;8.07;3.75;;;13.60;86.70;;;;;;5012685;28;20053;-66
2021/07/20 04:24:29;;;;;;;9.02;2.00;;;13.70;86.70;;;;;;5000981;28;20381;-67
2021/07/20 04:26:56;;;;;;;4.20;1.38;;;13.70;86.40;;;;;;5011248;28;20069;-68
2021/07/20 04:29:23;;;;;;;6.22;2.25;;;13.60;86.00;;;;;;5010820;28;20041;-69
2021/07/20 04:31:54;;;;;;;11.05;1.80;;;13.60;86.20;;;;;;5012054;28;20068;-67
2021/07/20 04:34:21;;;;;;;7.28;1.55;;;13.60;86.10;;;;;;5011037;28;20064;-68
2021/07/20 04:36:49;;;;;;;3.72;1.25;;;13.60;85.90;;;;;;5012289;28;20022;-69
2021/07/20 04:39:16;;;;;;;6.55;1.88;;;13.60;85.90;;;;;;5011636;28;20101;-68
2021/07/20 04:41:43;;;;;;;4.75;1.73;;;13.60;85.80;;;;;;5015945;28;20031;-66
2021/07/20 04:44:10;;;;;;;8.20;1.42;;;13.60;85.90;;;;;;5013762;28;20108;-66
2021/07/20 04:46:37;;;;;;;4.40;1.50;;;13.60;86.30;;;;;;5015824;28;20097;-67
2021/07/20 04:49:04;;;;;;;8.88;4.05;;;13.60;86.50;;;;;;5018956;28;20037;-67
2021/07/20 04:51:37;;;;;;;9.38;1.92;;;13.60;86.70;;;;;;5014317;28;20105;-67
2021/07/20 04:54:04;;;;;;;4.10;1.50;;;13.60;86.80;;;;;;5017569;28;20030;-71
2021/07/20 04:56:31;;;;;;;4.20;1.20;;;13.60;87.00;;;;;;5016874;28;20049;-68
2021/07/20 04:58:58;;;;;;;5.60;1.52;;;13.60;87.10;;;;;;5015862;28;20097;-66
2021/07/20 05:01:25;;;;;;;3.20;1.65;;;13.60;87.30;;;;;;5014181;28;20076;-66
2021/07/20 05:03:52;;;;;;;5.45;1.33;;;13.60;87.50;;;;;;5014789;28;20032;-66
2021/07/20 05:06:21;;;;;;;2.85;1.55;;;13.50;87.70;;;;;;5016085;28;20025;-66
2021/07/20 05:08:48;;;;;;;4.65;1.17;;;13.50;87.90;;;;;;5015379;28;20022;-66
2021/07/20 05:11:15;;;;;;;5.97;1.30;;;13.50;88.10;;;;;;5014641;28;20045;-66
2021/07/20 05:13:41;;;;;;;4.55;1.27;;;13.50;88.80;;;;;;5014677;28;20022;-65
2021/07/20 05:16:08;;;;;;;5.20;1.40;;;13.50;88.30;;;;;;5014045;28;20026;-66
2021/07/20 05:18:36;;;;;;;6.32;1.10;;;13.50;88.20;;;;;;5014990;28;20045;-66
2021/07/20 05:21:02;;;;;;;5.72;1.55;;;13.50;88.30;;;;;;5017457;28;20418;-66
2021/07/20 05:23:30;;;;;;;5.97;0.95;;;13.50;88.50;;;;;;5011214;28;20075;-66
2021/07/20 05:25:59;;;;;;;1.77;1.13;;;13.40;88.40;;;;;;5013894;28;20041;-66
2021/07/20 05:28:27;;;;;;;3.30;0.93;;;13.40;88.20;;;;;;5014798;28;20021;-66
2021/07/20 05:30:59;;;;;;;4.43;1.38;;;13.40;88.20;;;;;;5012052;28;20393;-66
2021/07/20 05:33:26;;;;;;;7.80;1.60;;;13.40;88.30;;;;;;5013185;28;20083;-66
2021/07/20 05:35:58;;;;;;;3.88;1.90;;;13.30;88.00;;;;;;5016023;28;20014;-66
2021/07/20 05:38:28;;;;;;;1.52;0.80;;;13.30;88.00;;;;;;5012279;28;21011;-66
2021/07/20 05:40:57;;;;;;;2.80;0.80;;;13.20;88.00;;;;;;5010837;28;20421;-67
2021/07/20 05:43:26;;;;;;;4.75;0.77;;;13.20;88.00;;;;;;5011151;28;20514;-66
2021/07/20 05:45:59;;;;;;;4.60;1.88;;;13.20;87.60;;;;;;5010248;28;20021;-66
2021/07/20 05:48:26;;;;;;;5.40;1.48;;;13.20;86.90;;;;;;5010762;28;20040;-66
2021/07/20 05:50:57;;;;;;;5.80;1.40;;;13.20;86.70;;;;;;5013082;28;20377;-66
2021/07/20 05:53:33;;;;;;;2.15;1.00;;;13.20;86.60;;;;;;5011243;28;20026;-66
2021/07/20 05:56:04;;;;;;;5.93;2.33;;;13.20;86.80;;;;;;5010977;28;20022;-66
2021/07/20 05:58:32;;;;;;;4.97;1.40;;;13.20;86.90;;;;;;5015388;28;20026;-66
2021/07/20 06:01:04;;;;;;;2.65;1.08;;;13.20;87.10;;;;;;5014087;28;20656;-66
2021/07/20 06:03:33;;;;;;;5.57;1.48;;;13.20;87.30;;;;;;5013381;28;20030;-66
2021/07/20 06:06:00;;;;;;;9.38;2.28;;;13.20;87.30;;;;;;5016274;28;20072;-66
2021/07/20 06:08:28;;;;;;;7.15;1.92;;;13.20;87.60;;;;;;5015393;28;20030;-66
2021/07/20 06:10:57;;;;;;;5.55;2.20;;;13.10;87.70;;;;;;5014157;28;20018;-67
2021/07/20 06:13:32;;;;;;;8.45;2.53;;;13.20;88.10;;;;;;5015529;28;20017;-69
2021/07/20 06:15:59;;;;;;;7.55;2.67;;;13.10;88.30;;;;;;5010642;28;20056;-65
2021/07/20 06:18:26;;;;;;;6.65;2.47;;;13.20;88.40;;;;;;5008413;28;20046;-66
2021/07/20 06:21:02;;;;;;;3.83;2.60;;;13.20;88.40;;;;;;5015189;28;20354;-66
2021/07/20 06:23:39;;;;;;;5.00;1.77;;;13.20;88.60;;;;;;5014599;28;20382;-66
2021/07/20 06:26:06;;;;;;;4.47;3.05;;;13.20;88.70;;;;;;5011631;28;20544;-67
2021/07/20 06:28:35;;;;;;;4.68;1.73;;;13.20;88.80;;;;;;5013114;28;20034;-66
2021/07/20 06:31:02;;;;;;;8.65;2.15;;;13.30;88.90;;;;;;5013233;28;20028;-66
2021/07/20 06:33:29;;;;;;;7.82;2.72;;;13.30;89.00;;;;;;5013153;28;20443;-67
2021/07/20 06:35:56;;;;;;;7.07;1.90;;;13.30;88.90;;;;;;5012899;28;20011;-66
2021/07/20 06:38:23;;;;;;;9.48;3.75;;;13.30;88.50;;;;;;5014656;28;20025;-66
2021/07/20 06:40:54;;;;;;;3.58;1.65;;;13.30;88.30;;;;;;5007581;28;20024;-66
2021/07/20 06:43:22;;;;;;;4.55;2.03;;;13.30;88.10;;;;;;5011035;28;20026;-70
2021/07/20 06:45:49;;;;;;;2.58;1.45;;;13.30;87.30;;;;;;5012395;28;20026;-66
2021/07/20 06:48:20;;;;;;;19.92;17.02;;;13.30;86.20;;;;;;5012789;28;20576;-65
2021/07/20 06:50:53;;;;;;;7.75;5.63;;;13.30;84.80;;;;;;5008687;28;20101;-66
2021/07/20 06:53:21;;;;;;;4.40;2.17;;;13.30;83.90;;;;;;5007019;28;20112;-66
2021/07/20 06:55:53;;;;;;;1.15;0.90;;;13.20;83.70;;;;;;5011677;28;20376;-66
2021/07/20 06:58:23;;;;;;;1.73;0.73;;;13.20;83.80;;;;;;5013551;28;20104;-66
2021/07/20 07:00:55;;;;;;;3.83;1.15;;;13.20;83.50;;;;;;5012049;28;20018;-66
2021/07/20 07:03:31;;;;;;;4.95;1.17;;;13.20;84.10;;;;;;5010119;28;20075;-66
2021/07/20 07:06:01;;;;;;;6.10;1.05;;;13.20;84.50;;;;;;5014519;28;20022;-66
2021/07/20 07:08:29;;;;;;;9.15;1.80;;;13.20;84.70;;;;;;5014139;28;20034;-66
2021/07/20 07:10:58;;;;;;;2.20;1.10;;;13.20;85.10;;;;;;5011230;28;20080;-67
2021/07/20 07:13:26;;;;;;;6.75;1.27;;;13.20;85.60;;;;;;5009499;28;20025;-66
2021/07/20 07:15:54;;;;;;;3.92;1.80;;;13.20;85.80;;;;;;5014016;28;20072;-66
2021/07/20 07:18:23;;;;;;;5.25;1.55;;;13.20;86.00;;;;;;5014430;28;20491;-66
2021/07/20 07:20:51;;;;;;;1.92;0.75;;;13.20;86.30;;;;;;5014302;28;20014;-66
2021/07/20 07:23:18;;;;;;;3.42;1.00;;;13.30;86.30;;;;;;5014700;28;20558;-66
2021/07/20 07:25:54;;;;;;;3.75;1.23;;;13.30;86.00;;;;;;5013491;28;20025;-66
2021/07/20 07:28:22;;;;;;;2.15;0.93;;;13.30;85.90;;;;;;5010896;28;20477;-67
2021/07/20 07:30:50;;;;;;;1.63;0.98;;;13.30;85.60;;;;;;5016619;28;20483;-66
2021/07/20 07:33:21;;;;;;;1.20;0.77;;;13.30;85.90;;;;;;5014159;28;20067;-66
2021/07/20 07:35:48;;;;;;;3.40;1.70;;;13.30;86.10;;;;;;5013454;28;20032;-66
2021/07/20 07:38:18;;;;;;;3.90;1.10;;;13.40;86.30;;;;;;5015188;28;20377;-66
2021/07/20 07:40:51;;;;;;;3.72;1.08;;;13.30;86.60;;;;;;5011247;28;20025;-66
2021/07/20 07:43:18;;;;;;;2.75;1.08;;;13.40;86.70;;;;;;5007058;28;20029;-66
2021/07/20 07:45:49;;;;;;;3.47;1.35;;;13.40;86.90;;;;;;5012556;28;20018;-66
2021/07/20 07:48:16;;;;;;;3.50;1.25;;;13.40;86.90;;;;;;5014821;28;20080;-66
2021/07/20 07:50:43;;;;;;;4.00;1.27;;;13.40;87.50;;;;;;5012189;28;20029;-66
2021/07/20 07:53:10;;;;;;;4.28;2.00;;;13.50;87.50;;;;;;5012625;28;20416;-66
2021/07/20 07:55:37;;;;;;;7.15;2.92;;;13.50;87.50;;;;;;5008508;28;20022;-66
2021/07/20 07:58:05;;;;;;;9.48;2.88;;;13.50;87.30;;;;;;5012812;28;20037;-66
2021/07/20 08:00:33;;;;;;;6.15;1.38;;;13.50;87.30;;;;;;5008441;28;20025;-66
2021/07/20 08:03:02;;;;;;;4.13;1.30;;;13.50;87.50;;;;;;5007751;28;20022;-66
2021/07/20 08:05:29;;;;;;;4.88;1.60;;;13.60;87.50;;;;;;5009780;28;20024;-67
2021/07/20 08:07:55;;;;;;;8.52;1.45;;;13.60;87.50;;;;;;5011569;28;20026;-66
2021/07/20 08:10:24;;;;;;;4.55;1.42;;;13.60;87.80;;;;;;5013664;28;20052;-67
2021/07/20 08:12:55;;;;;;;5.45;1.48;;;13.60;87.50;;;;;;5013065;28;20492;-66
2021/07/20 08:15:21;;;;;;;5.70;1.98;;;13.70;87.70;;;;;;5011883;28;20033;-67
2021/07/20 08:17:49;;;;;;;5.60;1.48;;;13.70;87.40;;;;;;5011607;28;20038;-66
2021/07/20 08:20:18;;;;;;;6.05;2.22;;;13.70;86.90;;;;;;5010310;28;20144;-67
2021/07/20 08:22:47;;;;;;;6.60;2.45;;;13.70;86.90;;;;;;5016442;28;20423;-66
2021/07/20 08:25:33;;;;;;;3.80;1.65;;;13.80;87.40;;;;;;5014811;28;20028;-66
2021/07/20 08:28:09;;;;;;;9.10;2.95;;;13.80;87.50;;;;;;5017398;28;20034;-66
2021/07/20 08:30:41;;;;;;;6.05;1.90;;;13.80;87.70;;;;;;5014236;28;20048;-67
2021/07/20 08:33:22;;;;;;;11.35;2.65;;;13.80;87.70;;;;;;5018704;28;20026;-66
2021/07/20 08:35:53;;;;;;;16.73;8.80;;;13.90;87.30;;;;;;5013817;28;20029;-66
2021/07/20 08:38:22;;;;;;;5.20;3.05;;;13.90;87.10;;;;;;5013948;28;20026;-67
2021/07/20 08:41:08;;;;;;;4.68;1.77;;;13.90;87.40;;;;;;5011123;28;20014;-67
2021/07/20 08:43:51;;;;;;;3.92;1.58;;;14.00;87.90;;;;;;5016883;28;20473;-66
2021/07/20 08:46:32;;;;;;;5.97;1.85;;;14.00;87.80;;;;;;5013844;28;20033;-67
2021/07/20 08:49:17;;;;;;;4.80;1.30;;;14.10;86.80;;;;;;5019083;28;20563;-67
2021/07/20 08:52:02;;;;;;;5.85;1.98;;;14.10;86.20;;;;;;5014881;28;20026;-67
2021/07/20 08:54:42;;;;;;;3.95;1.48;;;14.10;85.80;;;;;;5013249;28;20477;-67
2021/07/20 08:57:13;;;;;;;4.65;1.85;;;14.10;85.50;;;;;;5018363;28;20037;-67
2021/07/20 08:59:55;;;;;;;4.93;2.95;;;14.10;85.50;;;;;;5011325;28;20045;-67
2021/07/20 09:02:30;;;;;;;11.80;3.63;;;14.10;85.50;;;;;;5002899;28;20069;-67
2021/07/20 09:05:31;;;;;;;4.97;2.15;;;14.20;85.70;;;;;;5017435;28;20026;-67
2021/07/20 09:08:32;;;;;;;6.93;2.35;;;14.20;85.30;;;;;;5013704;28;20784;-69
2021/07/20 09:11:29;;;;;;;3.55;1.30;;;14.30;83.80;;;;;;5016131;28;20426;-66
2021/07/20 09:14:07;;;;;;;4.90;2.08;;;14.20;82.60;;;;;;5016529;28;20052;-66
2021/07/20 09:16:37;;;;;;;5.15;1.80;;;14.20;82.40;;;;;;5013389;28;20021;-66
2021/07/20 09:19:19;;;;;;;5.97;1.92;;;14.20;81.40;;;;;;5015898;28;20049;-66
2021/07/20 09:21:49;;;;;;;5.85;1.60;;;14.10;81.20;;;;;;5018039;28;20022;-68
2021/07/20 09:24:22;;;;;;;5.57;2.13;;;14.20;82.50;;;;;;5010151;28;20022;-67
2021/07/20 09:26:59;;;;;;;4.82;1.20;;;14.20;82.60;;;;;;5014028;28;20033;-67
2021/07/20 09:29:30;;;;;;;6.85;1.58;;;14.30;82.30;;;;;;5015223;28;20503;-67
2021/07/20 09:32:33;;;;;;;17.75;9.77;;;14.30;82.20;;;;;;5014140;28;20029;-66
2021/07/20 09:35:05;;;;;;;3.88;1.40;;;14.30;82.40;;;;;;5007381;28;20045;-67
2021/07/20 09:37:50;;;;;;;2.03;1.55;;;14.30;81.30;;;;;;5013833;28;20068;-67
2021/07/20 09:40:48;;;;;;;2.97;1.15;;;14.20;80.20;;;;;;5014882;28;20030;-67
2021/07/20 09:43:35;;;;;;;8.10;1.83;;;14.20;80.20;;;;;;5011913;28;20034;-67
2021/07/20 09:46:04;;;;;;;3.08;1.17;;;14.20;79.80;;;;;;5010691;28;20018;-67
2021/07/20 09:49:00;;;;;;;1.98;0.80;;;14.30;79.60;;;;;;5016562;28;20029;-67
2021/07/20 09:51:47;;;;;;;4.63;1.40;;;14.40;79.80;;;;;;5014295;28;20116;-66
2021/07/20 09:54:41;;;;;;;1.50;0.82;;;14.40;79.60;;;;;;5013848;28;20084;-67
2021/07/20 09:57:33;;;;;;;2.08;1.02;;;14.40;79.50;;;;;;5015982;28;20378;-67
2021/07/20 10:00:21;;;;;;;5.65;3.03;;;14.40;79.50;;;;;;5027677;28;20060;-67
2021/07/20 10:02:47;;;;;;;3.50;1.40;;;14.40;78.60;;;;;;5013534;28;20018;-69
2021/07/20 10:05:25;;;;;;;5.95;1.48;;;14.50;78.70;;;;;;5015501;28;20551;-67
2021/07/20 10:08:01;;;;;;;3.33;1.92;;;14.60;79.60;;;;;;5011049;28;20136;-66
2021/07/20 10:11:08;;;;;;;3.17;1.00;;;14.70;79.70;;;;;;5014778;28;20057;-67
2021/07/20 10:14:03;;;;;;;5.18;1.70;;;14.90;79.00;;;;;;5014494;28;20022;-66
2021/07/20 10:16:53;;;;;;;3.80;1.30;;;15.00;78.00;;;;;;5014058;28;20018;-67
2021/07/20 10:19:36;;;;;;;4.75;1.80;;;15.10;76.70;;;;;;5015060;28;20049;-67
2021/07/20 10:22:09;;;;;;;3.95;1.50;;;15.10;75.30;;;;;;5012501;28;20025;-67
2021/07/20 10:24:42;;;;;;;6.07;1.48;;;15.10;76.20;;;;;;5016090;28;20029;-67
2021/07/20 10:27:15;;;;;;;3.67;0.90;;;15.30;76.40;;;;;;5011474;28;20029;-66
2021/07/20 10:29:55;;;;;;;4.38;1.60;;;15.30;75.70;;;;;;5014209;28;20117;-67
2021/07/20 10:32:41;;;;;;;2.63;1.50;;;15.40;75.20;;;;;;5003931;28;20030;-69
2021/07/20 10:35:50;;;;;;;4.22;1.33;;;15.30;75.10;;;;;;5011987;28;20022;-69
2021/07/20 10:38:58;;;;;;;3.83;1.10;;;15.30;74.80;;;;;;5014181;28;20520;-69
2021/07/20 10:42:11;;;;;;;5.25;1.20;;;15.30;74.00;;;;;;5012977;28;20029;-70
2021/07/20 10:45:17;;;;;;;3.10;1.05;;;15.40;74.20;;;;;;5011697;28;20036;-69
2021/07/20 10:48:32;;;;;;;6.35;1.60;;;15.50;74.20;;;;;;5014659;28;20034;-69
2021/07/20 10:51:27;;;;;;;6.40;1.55;;;15.70;72.00;;;;;;5009188;28;20037;-69
2021/07/20 10:54:45;;;;;;;5.18;1.50;;;15.80;71.20;;;;;;5012657;28;20044;-69
2021/07/20 10:57:51;;;;;;;5.88;1.25;;;15.90;70.30;;;;;;5019245;28;20051;-69
2021/07/20 11:01:03;;;;;;;1.90;0.85;;;15.90;70.10;;;;;;5013360;28;20099;-69
2021/07/20 11:03:29;;;;;;;2.00;0.80;;;15.80;69.20;;;;;;5008910;28;20040;-72
2021/07/20 11:05:57;;;;;;;5.10;1.25;;;15.70;68.40;;;;;;5003784;28;20088;-69
2021/07/20 11:08:24;;;;;;;4.50;1.02;;;15.70;67.90;;;;;;5011611;28;20033;-69
2021/07/20 11:10:54;;;;;;;2.40;0.90;;;15.60;66.40;;;;;;5013630;28;20040;-69
2021/07/20 11:13:33;;;;;;;5.45;2.28;;;15.60;66.10;;;;;;5008494;28;20109;-68
2021/07/20 11:16:04;;;;;;;6.22;1.85;;;15.60;67.00;;;;;;5010077;28;20376;-69
2021/07/20 11:18:37;;;;;;;1.90;0.85;;;15.70;67.60;;;;;;5015272;28;20037;-69
2021/07/20 11:21:08;;;;;;;4.05;1.25;;;15.80;67.00;;;;;;5011902;28;20390;-69
2021/07/20 11:23:38;;;;;;;3.90;1.35;;;16.00;67.80;;;;;;5010004;28;20088;-69
2021/07/20 11:26:06;;;;;;;3.70;1.88;;;16.10;66.00;;;;;;5008200;28;20021;-68
2021/07/20 11:28:33;;;;;;;4.88;1.50;;;16.20;66.40;;;;;;5012271;28;20038;-69
2021/07/20 11:31:07;;;;;;;7.85;2.20;;;16.40;66.80;;;;;;5012614;28;20367;-68
2021/07/20 11:33:42;;;;;;;2.53;1.58;;;16.50;65.50;;;;;;5009800;28;20034;-68
2021/07/20 11:36:14;;;;;;;2.50;1.05;;;16.50;64.10;;;;;;5009324;28;20140;-68
2021/07/20 11:38:44;;;;;;;4.50;0.90;;;16.50;64.20;;;;;;5008157;28;20096;-68
2021/07/20 11:41:39;;;;;;;12.40;8.82;;;16.60;64.50;;;;;;5016223;28;20553;-68
2021/07/20 11:44:12;;;;;;;17.98;11.93;;;16.70;63.60;;;;;;5010068;28;20060;-69
2021/07/20 11:46:45;;;;;;;5.28;2.97;;;16.70;63.20;;;;;;5008163;28;20030;-69
2021/07/20 11:49:33;;;;;;;2.33;1.25;;;16.80;62.80;;;;;;5015280;28;20389;-68
2021/07/20 11:52:04;;;;;;;1.52;0.82;;;16.70;61.80;;;;;;5011930;28;20018;-68
2021/07/20 11:54:42;;;;;;;4.85;0.75;;;16.60;64.90;;;;;;5012914;28;20021;-69
2021/07/20 11:57:09;;;;;;;0.50;0.40;;;16.50;65.20;;;;;;5011077;28;20018;-67
2021/07/20 12:00:03;;;;;;;3.17;1.40;;;16.50;65.30;;;;;;5012639;28;20021;-67
2021/07/20 12:03:03;;;;;;;0.93;0.20;;;16.50;65.00;;;;;;5013296;28;20462;-68
2021/07/20 12:05:57;;;;;;;2.30;0.50;;;16.50;64.10;;;;;;5014331;28;20025;-69
2021/07/20 12:08:39;;;;;;;3.08;0.88;;;16.40;63.50;;;;;;5011341;28;20043;-67
2021/07/20 12:11:15;;;;;;;13.88;9.38;;;16.30;63.40;;;;;;5012803;28;20026;-68
2021/07/20 12:13:43;;;;;;;1.60;1.30;;;16.30;64.30;;;;;;5009477;28;20706;-67
2021/07/20 12:16:14;;;;;;;2.47;0.90;;;16.20;64.00;;;;;;5014457;28;20026;-67
2021/07/20 12:18:47;;;;;;;1.58;0.60;;;16.10;64.70;;;;;;5012276;28;20049;-67
2021/07/20 12:21:20;;;;;;;3.63;0.50;;;16.10;62.30;;;;;;5012760;28;20018;-67
2021/07/20 12:23:51;;;;;;;2.20;0.68;;;16.20;62.20;;;;;;5012534;28;20029;-67
2021/07/20 12:26:22;;;;;;;1.52;0.60;;;16.30;61.80;;;;;;5012855;28;20068;-67
2021/07/20 12:28:49;;;;;;;0.80;0.77;;;16.40;61.30;;;;;;5017350;28;20123;-67
2021/07/20 12:31:16;;;;;;;2.70;0.50;;;16.40;60.50;;;;;;5010292;28;20100;-67
2021/07/20 12:33:47;;;;;;;0.75;0.32;;;16.30;60.00;;;;;;5013379;28;20022;-68
2021/07/20 12:36:15;;;;;;;2.92;0.57;;;16.30;60.70;;;;;;5010816;28;20057;-67
2021/07/20 12:38:43;;;;;;;4.47;2.05;;;16.20;61.50;;;;;;5011965;28;20018;-68
2021/07/20 12:41:14;;;;;;;21.35;14.75;;;16.20;61.80;;;;;;5015367;28;20029;-66
2021/07/20 12:43:44;;;;;;;5.97;2.72;;;16.10;61.40;;;;;;5009118;28;20026;-69
2021/07/20 12:46:16;;;;;;;2.65;1.10;;;16.10;61.70;;;;;;5014332;28;20087;-66
2021/07/20 12:48:49;;;;;;;5.15;0.40;;;16.00;62.20;;;;;;5013053;28;20124;-68
2021/07/20 12:51:17;;;;;;;1.30;0.95;;;16.00;62.20;;;;;;5012141;28;20017;-66
2021/07/20 12:53:46;;;;;;;4.10;1.48;;;16.00;62.20;;;;;;5010354;28;20037;-69
2021/07/20 12:56:33;;;;;;;1.80;0.70;;;16.10;62.60;;;;;;5013734;28;20324;-68
2021/07/20 12:59:05;;;;;;;0.88;0.57;;;16.10;62.10;;;;;;5011800;28;20383;-67
2021/07/20 13:01:38;;;;;;;3.55;1.00;;;16.30;62.40;;;;;;5010160;28;20081;-67
2021/07/20 13:04:06;;;;;;;2.40;0.70;;;16.30;61.90;;;;;;5013260;28;20087;-66
2021/07/20 13:06:38;;;;;;;2.55;0.70;;;16.40;61.60;;;;;;5013419;28;20421;-66
2021/07/20 13:09:09;;;;;;;2.78;1.02;;;16.40;61.30;;;;;;5014941;28;20096;-67
2021/07/20 13:11:40;;;;;;;1.60;0.52;;;16.40;60.50;;;;;;5015641;28;20495;-69
2021/07/20 13:14:08;;;;;;;0.52;0.40;;;16.40;60.80;;;;;;5017775;28;20022;-66
2021/07/20 13:16:35;;;;;;;3.17;0.75;;;16.40;59.60;;;;;;5015206;28;20046;-68
2021/07/20 13:19:04;;;;;;;1.13;0.60;;;16.30;59.70;;;;;;5016347;28;20044;-68